createdAt,value
2022-11-25T07:12:42.046Z,100.00
2022-11-25T07:15:09.685Z,100.00
2022-11-25T07:17:37.103Z,100.00
2022-11-25T07:20:04.938Z,100.00
2022-11-25T07:22:32.604Z,100.00
2022-11-25T07:24:59.845Z,100.00
2022-11-25T07:27:27.138Z,100.00
2022-11-25T07:30:29.024Z,99.82
2022-11-25T07:32:42.255Z,98.94
2022-11-25T07:35:09.493Z,99.42
2022-11-25T07:37:36.873Z,98.85
2022-11-25T07:40:04.598Z,99.25
2022-11-25T07:42:33.239Z,98.75
2022-11-25T07:45:00.484Z,98.81
2022-11-25T07:47:27.767Z,98.34
2022-11-25T07:49:55.025Z,98.56
2022-11-25T07:52:22.233Z,97.17
2022-11-25T07:54:49.579Z,98.20
2022-11-25T07:57:17.045Z,97.77
2022-11-25T07:59:44.540Z,97.62
2022-11-25T08:02:12.234Z,96.88
2022-11-25T08:04:39.537Z,95.92
2022-11-25T08:07:07.172Z,96.77
2022-11-25T08:09:34.702Z,97.87
2022-11-25T08:12:02.992Z,96.83
2022-11-25T08:14:30.298Z,96.51
2022-11-25T08:16:58.434Z,96.32
2022-11-25T08:19:31.146Z,97.03
2022-11-25T08:21:58.731Z,96.71
2022-11-25T08:24:25.951Z,96.52
2022-11-25T08:26:54.973Z,96.93
2022-11-25T08:29:22.252Z,97.55
2022-11-25T08:31:49.463Z,96.93
2022-11-25T08:34:21.659Z,97.25
2022-11-25T08:36:49.208Z,97.38
2022-11-25T08:39:44.112Z,96.87
2022-11-25T08:42:04.891Z,97.80
2022-11-25T08:44:32.099Z,98.03
2022-11-25T08:46:59.411Z,97.81
2022-11-25T08:49:29.262Z,98.20
2022-11-25T08:51:56.822Z,98.15
2022-11-25T08:54:25.879Z,98.40
2022-11-25T22:32:19.381Z,100.00
2022-11-25T22:34:46.893Z,100.00
2022-11-25T22:37:16.047Z,100.00
2022-11-25T22:39:43.487Z,100.00
2022-11-25T22:42:40.979Z,100.00
2022-11-25T22:45:15.451Z,100.00
2022-11-25T22:47:43.270Z,100.00
2022-11-25T22:50:24.737Z,100.00
2022-11-25T22:52:52.025Z,100.00
2022-11-25T22:55:32.337Z,100.00
2022-11-25T22:58:00.445Z,100.00
2022-11-25T23:00:31.149Z,100.00
2022-11-25T23:02:59.184Z,100.00
2022-11-25T23:05:33.079Z,100.00
2022-11-25T23:08:02.309Z,100.00
2022-11-25T23:22:15.519Z,100.00
2022-11-25T23:24:46.999Z,100.00
2022-11-25T23:27:14.615Z,100.00
2022-11-25T23:29:42.304Z,100.00
2022-11-25T23:32:18.445Z,100.00
2022-11-25T23:34:45.920Z,100.00
2022-11-25T23:37:13.719Z,100.00
2022-11-25T23:39:41.415Z,100.00
2022-11-25T23:42:27.834Z,100.00
2022-11-25T23:44:55.171Z,100.00
2022-11-25T23:47:23.005Z,100.00
2022-11-25T23:49:51.647Z,100.00
2022-11-25T23:52:23.796Z,100.00
2022-11-25T23:54:51.381Z,100.00
2022-11-25T23:57:31.713Z,100.00
2022-11-25T23:59:59.206Z,100.00
